sensor_id;sensor_type;location;lat;lon;timestamp;P1;durP1;ratioP1;P2;durP2;ratioP2
39524;SDS011;25203;50.754;6.978;2024-02-26T00:01:51;1.83;;;1.35;;
39524;SDS011;25203;50.754;6.978;2024-02-26T00:03:52;1.55;;;1.30;;
39524;SDS011;25203;50.754;6.978;2024-02-26T00:05:54;2.22;;;1.40;;
39524;SDS011;25203;50.754;6.978;2024-02-26T00:07:56;4.93;;;1.23;;
39524;SDS011;25203;50.754;6.978;2024-02-26T00:09:56;2.38;;;1.48;;
39524;SDS011;25203;50.754;6.978;2024-02-26T00:11:57;1.90;;;1.58;;
39524;SDS011;25203;50.754;6.978;2024-02-26T00:13:59;2.15;;;1.30;;
39524;SDS011;25203;50.754;6.978;2024-02-26T00:15:59;3.75;;;1.45;;
39524;SDS011;25203;50.754;6.978;2024-02-26T00:18:00;2.10;;;1.23;;
39524;SDS011;25203;50.754;6.978;2024-02-26T00:20:04;2.95;;;1.50;;
39524;SDS011;25203;50.754;6.978;2024-02-26T00:22:08;4.85;;;1.20;;
39524;SDS011;25203;50.754;6.978;2024-02-26T00:24:09;2.13;;;1.30;;
39524;SDS011;25203;50.754;6.978;2024-02-26T00:26:09;2.60;;;1.20;;
39524;SDS011;25203;50.754;6.978;2024-02-26T00:28:11;2.05;;;1.20;;
39524;SDS011;25203;50.754;6.978;2024-02-26T00:30:13;2.85;;;1.40;;
39524;SDS011;25203;50.754;6.978;2024-02-26T00:32:14;1.58;;;1.10;;
39524;SDS011;25203;50.754;6.978;2024-02-26T00:34:14;2.65;;;1.08;;
39524;SDS011;25203;50.754;6.978;2024-02-26T00:36:15;1.80;;;1.10;;
39524;SDS011;25203;50.754;6.978;2024-02-26T00:38:15;1.88;;;1.30;;
39524;SDS011;25203;50.754;6.978;2024-02-26T00:40:16;3.58;;;1.23;;
39524;SDS011;25203;50.754;6.978;2024-02-26T00:42:17;1.15;;;1.00;;
39524;SDS011;25203;50.754;6.978;2024-02-26T00:44:18;3.80;;;1.10;;
39524;SDS011;25203;50.754;6.978;2024-02-26T00:46:18;1.63;;;1.20;;
39524;SDS011;25203;50.754;6.978;2024-02-26T00:48:19;2.72;;;1.48;;
39524;SDS011;25203;50.754;6.978;2024-02-26T00:50:19;3.97;;;1.27;;
39524;SDS011;25203;50.754;6.978;2024-02-26T00:52:20;1.42;;;1.17;;
39524;SDS011;25203;50.754;6.978;2024-02-26T00:54:21;1.45;;;1.05;;
39524;SDS011;25203;50.754;6.978;2024-02-26T00:56:21;3.42;;;1.17;;
39524;SDS011;25203;50.754;6.978;2024-02-26T00:58:22;1.50;;;1.00;;
39524;SDS011;25203;50.754;6.978;2024-02-26T01:00:23;1.90;;;1.10;;
39524;SDS011;25203;50.754;6.978;2024-02-26T01:02:23;2.30;;;1.10;;
39524;SDS011;25203;50.754;6.978;2024-02-26T01:04:24;3.05;;;1.30;;
39524;SDS011;25203;50.754;6.978;2024-02-26T01:06:24;3.08;;;1.15;;
39524;SDS011;25203;50.754;6.978;2024-02-26T01:08:25;2.95;;;1.52;;
39524;SDS011;25203;50.754;6.978;2024-02-26T01:10:25;3.00;;;1.10;;
39524;SDS011;25203;50.754;6.978;2024-02-26T01:12:27;3.47;;;1.00;;
39524;SDS011;25203;50.754;6.978;2024-02-26T01:14:28;1.38;;;1.25;;
39524;SDS011;25203;50.754;6.978;2024-02-26T01:16:29;1.58;;;1.30;;
39524;SDS011;25203;50.754;6.978;2024-02-26T01:18:30;1.73;;;1.50;;
39524;SDS011;25203;50.754;6.978;2024-02-26T01:20:31;1.60;;;1.20;;
39524;SDS011;25203;50.754;6.978;2024-02-26T01:22:32;2.55;;;1.10;;
39524;SDS011;25203;50.754;6.978;2024-02-26T01:24:32;2.53;;;1.23;;
39524;SDS011;25203;50.754;6.978;2024-02-26T01:26:33;2.88;;;1.17;;
39524;SDS011;25203;50.754;6.978;2024-02-26T01:28:33;2.65;;;1.00;;
39524;SDS011;25203;50.754;6.978;2024-02-26T01:30:34;2.85;;;1.42;;
39524;SDS011;25203;50.754;6.978;2024-02-26T01:32:34;3.47;;;1.15;;
39524;SDS011;25203;50.754;6.978;2024-02-26T01:34:36;2.42;;;1.50;;
39524;SDS011;25203;50.754;6.978;2024-02-26T01:36:37;3.65;;;1.17;;
39524;SDS011;25203;50.754;6.978;2024-02-26T01:38:37;1.42;;;1.30;;
39524;SDS011;25203;50.754;6.978;2024-02-26T01:40:38;2.22;;;1.20;;
39524;SDS011;25203;50.754;6.978;2024-02-26T01:42:38;1.55;;;1.10;;
39524;SDS011;25203;50.754;6.978;2024-02-26T01:44:39;2.97;;;1.20;;
39524;SDS011;25203;50.754;6.978;2024-02-26T01:46:40;1.17;;;1.10;;
39524;SDS011;25203;50.754;6.978;2024-02-26T01:48:41;1.73;;;1.15;;
39524;SDS011;25203;50.754;6.978;2024-02-26T01:50:42;1.40;;;1.02;;
39524;SDS011;25203;50.754;6.978;2024-02-26T01:52:43;1.30;;;1.20;;
39524;SDS011;25203;50.754;6.978;2024-02-26T01:54:47;3.33;;;1.23;;
39524;SDS011;25203;50.754;6.978;2024-02-26T01:56:48;1.25;;;1.15;;
39524;SDS011;25203;50.754;6.978;2024-02-26T01:58:50;2.35;;;0.93;;
39524;SDS011;25203;50.754;6.978;2024-02-26T02:00:51;1.48;;;1.27;;
39524;SDS011;25203;50.754;6.978;2024-02-26T02:02:52;3.15;;;1.40;;
39524;SDS011;25203;50.754;6.978;2024-02-26T02:04:54;1.40;;;1.30;;
39524;SDS011;25203;50.754;6.978;2024-02-26T02:06:55;1.67;;;1.17;;
39524;SDS011;25203;50.754;6.978;2024-02-26T02:08:58;2.08;;;1.13;;
39524;SDS011;25203;50.754;6.978;2024-02-26T02:11:00;1.45;;;1.00;;
39524;SDS011;25203;50.754;6.978;2024-02-26T02:13:01;1.10;;;1.00;;
39524;SDS011;25203;50.754;6.978;2024-02-26T02:15:02;1.35;;;0.90;;
39524;SDS011;25203;50.754;6.978;2024-02-26T02:17:02;1.73;;;1.30;;
39524;SDS011;25203;50.754;6.978;2024-02-26T02:19:03;2.03;;;1.40;;
39524;SDS011;25203;50.754;6.978;2024-02-26T02:21:04;1.50;;;1.30;;
39524;SDS011;25203;50.754;6.978;2024-02-26T02:23:04;1.02;;;0.93;;
39524;SDS011;25203;50.754;6.978;2024-02-26T02:25:05;1.55;;;1.08;;
39524;SDS011;25203;50.754;6.978;2024-02-26T02:27:06;1.58;;;1.15;;
39524;SDS011;25203;50.754;6.978;2024-02-26T02:29:06;1.40;;;1.30;;
39524;SDS011;25203;50.754;6.978;2024-02-26T02:31:09;1.77;;;1.10;;
39524;SDS011;25203;50.754;6.978;2024-02-26T02:33:10;2.35;;;1.25;;
39524;SDS011;25203;50.754;6.978;2024-02-26T02:35:12;1.35;;;1.20;;
39524;SDS011;25203;50.754;6.978;2024-02-26T02:37:13;4.10;;;1.20;;
39524;SDS011;25203;50.754;6.978;2024-02-26T02:39:13;1.60;;;1.00;;
39524;SDS011;25203;50.754;6.978;2024-02-26T02:41:15;2.33;;;1.10;;
39524;SDS011;25203;50.754;6.978;2024-02-26T02:43:16;1.98;;;1.20;;
39524;SDS011;25203;50.754;6.978;2024-02-26T02:45:16;3.53;;;1.15;;
39524;SDS011;25203;50.754;6.978;2024-02-26T02:47:17;1.48;;;1.20;;
39524;SDS011;25203;50.754;6.978;2024-02-26T02:49:17;3.25;;;1.27;;
39524;SDS011;25203;50.754;6.978;2024-02-26T02:51:18;2.38;;;1.10;;
39524;SDS011;25203;50.754;6.978;2024-02-26T02:53:19;2.60;;;1.25;;
39524;SDS011;25203;50.754;6.978;2024-02-26T02:55:19;2.42;;;1.10;;
39524;SDS011;25203;50.754;6.978;2024-02-26T02:57:20;1.63;;;1.25;;
39524;SDS011;25203;50.754;6.978;2024-02-26T02:59:21;8.63;;;1.30;;
39524;SDS011;25203;50.754;6.978;2024-02-26T03:01:21;1.50;;;1.30;;
39524;SDS011;25203;50.754;6.978;2024-02-26T03:03:22;1.50;;;1.17;;
39524;SDS011;25203;50.754;6.978;2024-02-26T03:05:24;2.78;;;1.40;;
39524;SDS011;25203;50.754;6.978;2024-02-26T03:07:24;2.92;;;1.42;;
39524;SDS011;25203;50.754;6.978;2024-02-26T03:09:25;1.58;;;1.45;;
39524;SDS011;25203;50.754;6.978;2024-02-26T03:11:26;1.95;;;1.40;;
39524;SDS011;25203;50.754;6.978;2024-02-26T03:13:26;1.83;;;1.30;;
39524;SDS011;25203;50.754;6.978;2024-02-26T03:15:27;2.95;;;1.20;;
39524;SDS011;25203;50.754;6.978;2024-02-26T03:17:28;2.28;;;1.30;;
39524;SDS011;25203;50.754;6.978;2024-02-26T03:19:29;1.50;;;1.15;;
39524;SDS011;25203;50.754;6.978;2024-02-26T03:21:29;3.55;;;1.40;;
39524;SDS011;25203;50.754;6.978;2024-02-26T03:23:30;3.08;;;1.25;;
39524;SDS011;25203;50.754;6.978;2024-02-26T03:25:32;2.50;;;1.80;;
39524;SDS011;25203;50.754;6.978;2024-02-26T03:27:32;2.22;;;1.38;;
39524;SDS011;25203;50.754;6.978;2024-02-26T03:29:33;2.10;;;1.20;;
39524;SDS011;25203;50.754;6.978;2024-02-26T03:31:33;3.20;;;1.45;;
39524;SDS011;25203;50.754;6.978;2024-02-26T03:33:34;1.52;;;1.23;;
39524;SDS011;25203;50.754;6.978;2024-02-26T03:35:35;1.45;;;1.30;;
39524;SDS011;25203;50.754;6.978;2024-02-26T03:37:36;1.50;;;1.15;;
39524;SDS011;25203;50.754;6.978;2024-02-26T03:39:36;1.80;;;1.45;;
39524;SDS011;25203;50.754;6.978;2024-02-26T03:41:37;5.68;;;1.27;;
39524;SDS011;25203;50.754;6.978;2024-02-26T03:43:38;3.03;;;1.30;;
39524;SDS011;25203;50.754;6.978;2024-02-26T03:45:38;3.08;;;1.60;;
39524;SDS011;25203;50.754;6.978;2024-02-26T03:47:39;3.85;;;1.40;;
39524;SDS011;25203;50.754;6.978;2024-02-26T03:49:40;1.55;;;1.38;;
39524;SDS011;25203;50.754;6.978;2024-02-26T03:51:40;2.97;;;1.35;;
39524;SDS011;25203;50.754;6.978;2024-02-26T03:53:41;1.90;;;1.58;;
39524;SDS011;25203;50.754;6.978;2024-02-26T03:55:41;1.55;;;1.40;;
39524;SDS011;25203;50.754;6.978;2024-02-26T03:57:42;3.08;;;1.27;;
39524;SDS011;25203;50.754;6.978;2024-02-26T03:59:43;2.92;;;1.60;;
39524;SDS011;25203;50.754;6.978;2024-02-26T04:01:46;2.33;;;1.52;;
39524;SDS011;25203;50.754;6.978;2024-02-26T04:03:47;1.65;;;1.30;;
39524;SDS011;25203;50.754;6.978;2024-02-26T04:05:48;2.72;;;1.80;;
39524;SDS011;25203;50.754;6.978;2024-02-26T04:07:48;3.28;;;1.90;;
39524;SDS011;25203;50.754;6.978;2024-02-26T04:09:49;3.55;;;1.52;;
39524;SDS011;25203;50.754;6.978;2024-02-26T04:11:49;4.13;;;1.80;;
39524;SDS011;25203;50.754;6.978;2024-02-26T04:13:50;1.75;;;1.30;;
39524;SDS011;25203;50.754;6.978;2024-02-26T04:15:52;2.15;;;1.50;;
39524;SDS011;25203;50.754;6.978;2024-02-26T04:17:52;2.75;;;1.60;;
39524;SDS011;25203;50.754;6.978;2024-02-26T04:19:53;2.25;;;1.42;;
39524;SDS011;25203;50.754;6.978;2024-02-26T04:21:54;1.55;;;1.27;;
39524;SDS011;25203;50.754;6.978;2024-02-26T04:23:54;1.77;;;1.45;;
39524;SDS011;25203;50.754;6.978;2024-02-26T04:25:55;2.03;;;1.38;;
39524;SDS011;25203;50.754;6.978;2024-02-26T04:27:56;1.67;;;1.58;;
39524;SDS011;25203;50.754;6.978;2024-02-26T04:29:57;2.95;;;1.75;;
39524;SDS011;25203;50.754;6.978;2024-02-26T04:31:57;2.72;;;1.55;;
39524;SDS011;25203;50.754;6.978;2024-02-26T04:33:58;2.28;;;1.58;;
39524;SDS011;25203;50.754;6.978;2024-02-26T04:35:58;3.10;;;1.77;;
39524;SDS011;25203;50.754;6.978;2024-02-26T04:37:59;1.95;;;1.60;;
39524;SDS011;25203;50.754;6.978;2024-02-26T04:40:00;2.63;;;1.60;;
39524;SDS011;25203;50.754;6.978;2024-02-26T04:42:01;1.60;;;1.45;;
39524;SDS011;25203;50.754;6.978;2024-02-26T04:44:03;2.30;;;1.92;;
39524;SDS011;25203;50.754;6.978;2024-02-26T04:46:04;4.88;;;1.70;;
39524;SDS011;25203;50.754;6.978;2024-02-26T04:48:05;2.10;;;1.63;;
39524;SDS011;25203;50.754;6.978;2024-02-26T04:50:06;1.70;;;1.48;;
39524;SDS011;25203;50.754;6.978;2024-02-26T04:52:06;2.00;;;1.70;;
39524;SDS011;25203;50.754;6.978;2024-02-26T04:54:07;3.97;;;1.60;;
39524;SDS011;25203;50.754;6.978;2024-02-26T04:56:08;2.50;;;1.88;;
39524;SDS011;25203;50.754;6.978;2024-02-26T04:58:09;2.10;;;1.40;;
39524;SDS011;25203;50.754;6.978;2024-02-26T05:00:10;2.97;;;1.80;;
39524;SDS011;25203;50.754;6.978;2024-02-26T05:02:12;3.03;;;1.80;;
39524;SDS011;25203;50.754;6.978;2024-02-26T05:04:13;1.73;;;1.63;;
39524;SDS011;25203;50.754;6.978;2024-02-26T05:06:13;4.78;;;1.80;;
39524;SDS011;25203;50.754;6.978;2024-02-26T05:08:14;3.40;;;2.20;;
39524;SDS011;25203;50.754;6.978;2024-02-26T05:10:14;4.90;;;1.63;;
39524;SDS011;25203;50.754;6.978;2024-02-26T05:12:15;2.65;;;1.80;;
39524;SDS011;25203;50.754;6.978;2024-02-26T05:14:16;1.73;;;1.42;;
39524;SDS011;25203;50.754;6.978;2024-02-26T05:16:17;2.03;;;1.75;;
39524;SDS011;25203;50.754;6.978;2024-02-26T05:18:18;2.60;;;1.67;;
39524;SDS011;25203;50.754;6.978;2024-02-26T05:20:18;3.08;;;1.80;;
39524;SDS011;25203;50.754;6.978;2024-02-26T05:22:19;2.63;;;1.67;;
39524;SDS011;25203;50.754;6.978;2024-02-26T05:24:20;3.20;;;1.75;;
39524;SDS011;25203;50.754;6.978;2024-02-26T05:26:22;3.20;;;1.98;;
39524;SDS011;25203;50.754;6.978;2024-02-26T05:28:23;2.40;;;1.70;;
39524;SDS011;25203;50.754;6.978;2024-02-26T05:30:23;3.75;;;1.70;;
39524;SDS011;25203;50.754;6.978;2024-02-26T05:32:24;3.67;;;1.95;;
39524;SDS011;25203;50.754;6.978;2024-02-26T05:34:25;2.42;;;1.60;;
39524;SDS011;25203;50.754;6.978;2024-02-26T05:36:25;3.08;;;1.70;;
39524;SDS011;25203;50.754;6.978;2024-02-26T05:38:28;3.58;;;2.00;;
39524;SDS011;25203;50.754;6.978;2024-02-26T05:40:29;2.75;;;1.90;;
39524;SDS011;25203;50.754;6.978;2024-02-26T05:42:30;2.70;;;2.40;;
39524;SDS011;25203;50.754;6.978;2024-02-26T05:44:30;4.60;;;2.30;;
39524;SDS011;25203;50.754;6.978;2024-02-26T05:46:31;2.28;;;1.85;;
39524;SDS011;25203;50.754;6.978;2024-02-26T05:48:31;3.80;;;1.75;;
39524;SDS011;25203;50.754;6.978;2024-02-26T05:50:32;5.05;;;2.28;;
39524;SDS011;25203;50.754;6.978;2024-02-26T05:52:32;3.20;;;2.55;;
39524;SDS011;25203;50.754;6.978;2024-02-26T05:54:33;4.82;;;2.35;;
39524;SDS011;25203;50.754;6.978;2024-02-26T05:56:34;2.72;;;2.00;;
39524;SDS011;25203;50.754;6.978;2024-02-26T05:58:34;6.60;;;2.67;;
39524;SDS011;25203;50.754;6.978;2024-02-26T06:00:35;4.10;;;2.40;;
39524;SDS011;25203;50.754;6.978;2024-02-26T06:02:36;2.50;;;2.15;;
39524;SDS011;25203;50.754;6.978;2024-02-26T06:04:36;3.13;;;2.22;;
39524;SDS011;25203;50.754;6.978;2024-02-26T06:06:37;3.17;;;2.10;;
39524;SDS011;25203;50.754;6.978;2024-02-26T06:08:38;5.85;;;2.55;;
39524;SDS011;25203;50.754;6.978;2024-02-26T06:10:39;2.83;;;2.33;;
39524;SDS011;25203;50.754;6.978;2024-02-26T06:12:40;3.45;;;2.35;;
39524;SDS011;25203;50.754;6.978;2024-02-26T06:14:43;3.78;;;2.60;;
39524;SDS011;25203;50.754;6.978;2024-02-26T06:16:44;4.25;;;2.58;;
39524;SDS011;25203;50.754;6.978;2024-02-26T06:18:44;4.85;;;2.58;;
39524;SDS011;25203;50.754;6.978;2024-02-26T06:20:45;4.30;;;2.33;;
39524;SDS011;25203;50.754;6.978;2024-02-26T06:22:46;3.33;;;2.25;;
39524;SDS011;25203;50.754;6.978;2024-02-26T06:24:47;6.70;;;2.55;;
39524;SDS011;25203;50.754;6.978;2024-02-26T06:26:50;3.00;;;2.17;;
39524;SDS011;25203;50.754;6.978;2024-02-26T06:28:52;3.35;;;2.42;;
39524;SDS011;25203;50.754;6.978;2024-02-26T06:30:54;3.30;;;2.28;;
39524;SDS011;25203;50.754;6.978;2024-02-26T06:32:55;3.20;;;2.20;;
39524;SDS011;25203;50.754;6.978;2024-02-26T06:34:55;7.15;;;2.50;;
39524;SDS011;25203;50.754;6.978;2024-02-26T06:36:56;3.90;;;2.55;;
39524;SDS011;25203;50.754;6.978;2024-02-26T06:38:57;3.58;;;2.38;;
39524;SDS011;25203;50.754;6.978;2024-02-26T06:40:58;5.35;;;2.63;;
39524;SDS011;25203;50.754;6.978;2024-02-26T06:42:58;2.67;;;2.10;;
39524;SDS011;25203;50.754;6.978;2024-02-26T06:44:59;2.83;;;2.47;;
39524;SDS011;25203;50.754;6.978;2024-02-26T06:47:00;4.10;;;2.60;;
39524;SDS011;25203;50.754;6.978;2024-02-26T06:49:01;5.20;;;2.50;;
39524;SDS011;25203;50.754;6.978;2024-02-26T06:51:01;3.95;;;2.50;;
39524;SDS011;25203;50.754;6.978;2024-02-26T06:53:02;3.88;;;2.55;;
39524;SDS011;25203;50.754;6.978;2024-02-26T06:55:03;2.80;;;2.40;;
39524;SDS011;25203;50.754;6.978;2024-02-26T06:57:05;4.78;;;2.95;;
39524;SDS011;25203;50.754;6.978;2024-02-26T06:59:05;4.00;;;2.53;;
39524;SDS011;25203;50.754;6.978;2024-02-26T07:01:06;6.32;;;2.85;;
39524;SDS011;25203;50.754;6.978;2024-02-26T07:03:08;5.03;;;2.70;;
39524;SDS011;25203;50.754;6.978;2024-02-26T07:05:08;7.50;;;2.80;;
39524;SDS011;25203;50.754;6.978;2024-02-26T07:07:09;5.22;;;3.17;;
39524;SDS011;25203;50.754;6.978;2024-02-26T07:09:10;6.53;;;3.33;;
39524;SDS011;25203;50.754;6.978;2024-02-26T07:11:12;5.30;;;3.10;;
39524;SDS011;25203;50.754;6.978;2024-02-26T07:13:12;3.78;;;3.08;;
39524;SDS011;25203;50.754;6.978;2024-02-26T07:15:13;5.70;;;2.90;;
39524;SDS011;25203;50.754;6.978;2024-02-26T07:17:14;3.28;;;2.80;;
39524;SDS011;25203;50.754;6.978;2024-02-26T07:19:16;3.47;;;3.13;;
39524;SDS011;25203;50.754;6.978;2024-02-26T07:21:16;4.38;;;3.05;;
39524;SDS011;25203;50.754;6.978;2024-02-26T07:23:17;3.60;;;2.90;;
39524;SDS011;25203;50.754;6.978;2024-02-26T07:25:17;3.45;;;2.92;;
39524;SDS011;25203;50.754;6.978;2024-02-26T07:27:18;3.75;;;3.05;;
39524;SDS011;25203;50.754;6.978;2024-02-26T07:29:21;5.18;;;3.20;;
39524;SDS011;25203;50.754;6.978;2024-02-26T07:31:21;5.28;;;3.30;;
39524;SDS011;25203;50.754;6.978;2024-02-26T07:33:22;4.50;;;3.08;;
39524;SDS011;25203;50.754;6.978;2024-02-26T07:35:22;7.05;;;3.92;;
39524;SDS011;25203;50.754;6.978;2024-02-26T07:37:23;5.90;;;3.15;;
39524;SDS011;25203;50.754;6.978;2024-02-26T07:39:24;4.80;;;3.20;;
39524;SDS011;25203;50.754;6.978;2024-02-26T07:41:24;5.53;;;2.97;;
39524;SDS011;25203;50.754;6.978;2024-02-26T07:43:25;6.85;;;3.60;;
39524;SDS011;25203;50.754;6.978;2024-02-26T07:45:25;5.85;;;3.63;;
39524;SDS011;25203;50.754;6.978;2024-02-26T07:47:26;4.45;;;3.72;;
39524;SDS011;25203;50.754;6.978;2024-02-26T07:49:27;4.95;;;3.60;;
39524;SDS011;25203;50.754;6.978;2024-02-26T07:51:27;4.40;;;3.83;;
39524;SDS011;25203;50.754;6.978;2024-02-26T07:53:28;6.43;;;3.83;;
39524;SDS011;25203;50.754;6.978;2024-02-26T07:55:29;6.88;;;3.75;;
39524;SDS011;25203;50.754;6.978;2024-02-26T07:57:30;4.43;;;3.47;;
39524;SDS011;25203;50.754;6.978;2024-02-26T07:59:32;6.43;;;3.72;;
39524;SDS011;25203;50.754;6.978;2024-02-26T08:01:32;6.55;;;3.83;;
39524;SDS011;25203;50.754;6.978;2024-02-26T08:03:34;3.90;;;3.47;;
39524;SDS011;25203;50.754;6.978;2024-02-26T08:05:39;5.13;;;3.45;;
39524;SDS011;25203;50.754;6.978;2024-02-26T08:07:42;6.22;;;3.17;;
39524;SDS011;25203;50.754;6.978;2024-02-26T08:09:43;5.75;;;3.20;;
39524;SDS011;25203;50.754;6.978;2024-02-26T08:11:43;7.63;;;3.72;;
39524;SDS011;25203;50.754;6.978;2024-02-26T08:13:44;5.45;;;3.67;;
39524;SDS011;25203;50.754;6.978;2024-02-26T08:15:45;5.30;;;3.75;;
39524;SDS011;25203;50.754;6.978;2024-02-26T08:17:45;4.45;;;3.80;;
39524;SDS011;25203;50.754;6.978;2024-02-26T08:19:47;6.00;;;3.10;;
39524;SDS011;25203;50.754;6.978;2024-02-26T08:21:48;5.93;;;3.60;;
39524;SDS011;25203;50.754;6.978;2024-02-26T08:23:48;5.05;;;3.05;;
39524;SDS011;25203;50.754;6.978;2024-02-26T08:25:49;5.18;;;3.47;;
39524;SDS011;25203;50.754;6.978;2024-02-26T08:27:50;8.15;;;3.55;;
39524;SDS011;25203;50.754;6.978;2024-02-26T08:29:50;7.10;;;3.80;;
39524;SDS011;25203;50.754;6.978;2024-02-26T08:31:51;6.28;;;3.40;;
39524;SDS011;25203;50.754;6.978;2024-02-26T08:33:51;6.43;;;4.07;;
39524;SDS011;25203;50.754;6.978;2024-02-26T08:35:52;4.13;;;3.30;;
39524;SDS011;25203;50.754;6.978;2024-02-26T08:37:53;7.15;;;4.00;;
39524;SDS011;25203;50.754;6.978;2024-02-26T08:39:53;5.35;;;3.45;;
39524;SDS011;25203;50.754;6.978;2024-02-26T08:41:54;5.28;;;3.97;;
39524;SDS011;25203;50.754;6.978;2024-02-26T08:43:54;7.38;;;3.63;;
39524;SDS011;25203;50.754;6.978;2024-02-26T08:45:56;5.05;;;3.75;;
39524;SDS011;25203;50.754;6.978;2024-02-26T08:47:57;5.13;;;3.13;;
39524;SDS011;25203;50.754;6.978;2024-02-26T08:49:59;6.70;;;3.28;;
39524;SDS011;25203;50.754;6.978;2024-02-26T08:51:59;4.50;;;3.55;;
39524;SDS011;25203;50.754;6.978;2024-02-26T08:54:00;5.35;;;3.72;;
39524;SDS011;25203;50.754;6.978;2024-02-26T08:56:00;5.15;;;3.28;;
39524;SDS011;25203;50.754;6.978;2024-02-26T08:58:01;6.32;;;3.83;;
39524;SDS011;25203;50.754;6.978;2024-02-26T09:00:02;5.43;;;3.50;;
39524;SDS011;25203;50.754;6.978;2024-02-26T09:02:03;7.47;;;3.20;;
39524;SDS011;25203;50.754;6.978;2024-02-26T09:04:03;6.78;;;3.42;;
39524;SDS011;25203;50.754;6.978;2024-02-26T09:06:04;6.80;;;3.28;;
39524;SDS011;25203;50.754;6.978;2024-02-26T09:08:06;5.80;;;3.70;;
39524;SDS011;25203;50.754;6.978;2024-02-26T09:10:07;6.57;;;3.35;;
39524;SDS011;25203;50.754;6.978;2024-02-26T09:12:11;6.32;;;3.92;;
39524;SDS011;25203;50.754;6.978;2024-02-26T09:14:12;5.53;;;3.58;;
39524;SDS011;25203;50.754;6.978;2024-02-26T09:16:12;5.03;;;3.53;;
39524;SDS011;25203;50.754;6.978;2024-02-26T09:18:13;5.40;;;3.58;;
39524;SDS011;25203;50.754;6.978;2024-02-26T09:20:15;6.13;;;3.55;;
39524;SDS011;25203;50.754;6.978;2024-02-26T09:22:16;11.88;;;3.78;;
39524;SDS011;25203;50.754;6.978;2024-02-26T09:24:16;5.78;;;3.70;;
39524;SDS011;25203;50.754;6.978;2024-02-26T09:26:17;8.73;;;4.05;;
39524;SDS011;25203;50.754;6.978;2024-02-26T09:28:18;5.05;;;3.20;;
39524;SDS011;25203;50.754;6.978;2024-02-26T09:30:18;6.93;;;3.90;;
39524;SDS011;25203;50.754;6.978;2024-02-26T09:32:19;6.00;;;3.70;;
39524;SDS011;25203;50.754;6.978;2024-02-26T09:34:20;4.78;;;3.70;;
39524;SDS011;25203;50.754;6.978;2024-02-26T09:36:20;6.60;;;3.47;;
39524;SDS011;25203;50.754;6.978;2024-02-26T09:38:21;6.85;;;3.90;;
39524;SDS011;25203;50.754;6.978;2024-02-26T09:40:23;4.20;;;3.72;;
39524;SDS011;25203;50.754;6.978;2024-02-26T09:42:27;5.53;;;4.03;;
39524;SDS011;25203;50.754;6.978;2024-02-26T09:44:31;8.05;;;3.90;;
39524;SDS011;25203;50.754;6.978;2024-02-26T09:46:38;5.20;;;3.33;;
39524;SDS011;25203;50.754;6.978;2024-02-26T09:48:38;3.50;;;3.15;;
39524;SDS011;25203;50.754;6.978;2024-02-26T09:50:40;7.15;;;3.50;;
39524;SDS011;25203;50.754;6.978;2024-02-26T09:52:42;8.15;;;4.22;;
39524;SDS011;25203;50.754;6.978;2024-02-26T09:54:45;5.45;;;3.60;;
39524;SDS011;25203;50.754;6.978;2024-02-26T09:56:47;5.45;;;3.95;;
39524;SDS011;25203;50.754;6.978;2024-02-26T09:58:51;4.82;;;2.97;;
39524;SDS011;25203;50.754;6.978;2024-02-26T10:00:56;5.10;;;3.08;;
39524;SDS011;25203;50.754;6.978;2024-02-26T10:03:04;5.88;;;3.83;;
39524;SDS011;25203;50.754;6.978;2024-02-26T10:05:06;5.13;;;3.42;;
39524;SDS011;25203;50.754;6.978;2024-02-26T10:07:10;4.38;;;3.20;;
39524;SDS011;25203;50.754;6.978;2024-02-26T10:09:12;4.72;;;3.47;;
39524;SDS011;25203;50.754;6.978;2024-02-26T10:11:15;5.20;;;3.35;;
39524;SDS011;25203;50.754;6.978;2024-02-26T10:13:18;5.00;;;3.30;;
39524;SDS011;25203;50.754;6.978;2024-02-26T10:15:20;5.63;;;3.58;;
39524;SDS011;25203;50.754;6.978;2024-02-26T10:17:20;5.13;;;3.35;;
39524;SDS011;25203;50.754;6.978;2024-02-26T10:19:26;5.00;;;3.70;;
39524;SDS011;25203;50.754;6.978;2024-02-26T10:21:30;4.75;;;3.38;;
39524;SDS011;25203;50.754;6.978;2024-02-26T10:23:31;5.57;;;3.70;;
39524;SDS011;25203;50.754;6.978;2024-02-26T10:25:31;4.55;;;3.05;;
39524;SDS011;25203;50.754;6.978;2024-02-26T10:27:32;5.38;;;3.55;;
39524;SDS011;25203;50.754;6.978;2024-02-26T10:29:34;4.30;;;3.13;;
39524;SDS011;25203;50.754;6.978;2024-02-26T10:31:34;4.05;;;3.25;;
39524;SDS011;25203;50.754;6.978;2024-02-26T10:33:38;4.05;;;3.08;;
39524;SDS011;25203;50.754;6.978;2024-02-26T10:35:44;5.43;;;3.58;;
39524;SDS011;25203;50.754;6.978;2024-02-26T10:37:46;5.30;;;3.13;;
39524;SDS011;25203;50.754;6.978;2024-02-26T10:39:47;5.30;;;2.90;;
39524;SDS011;25203;50.754;6.978;2024-02-26T10:41:48;8.18;;;3.35;;
39524;SDS011;25203;50.754;6.978;2024-02-26T10:43:48;4.00;;;3.15;;
39524;SDS011;25203;50.754;6.978;2024-02-26T10:45:49;4.65;;;2.90;;
39524;SDS011;25203;50.754;6.978;2024-02-26T10:47:50;5.03;;;3.25;;
39524;SDS011;25203;50.754;6.978;2024-02-26T10:49:51;3.50;;;2.72;;
39524;SDS011;25203;50.754;6.978;2024-02-26T10:51:54;4.18;;;2.83;;
39524;SDS011;25203;50.754;6.978;2024-02-26T10:53:59;3.92;;;3.03;;
39524;SDS011;25203;50.754;6.978;2024-02-26T10:56:04;4.22;;;2.97;;
39524;SDS011;25203;50.754;6.978;2024-02-26T10:58:06;4.60;;;3.33;;
39524;SDS011;25203;50.754;6.978;2024-02-26T11:00:08;4.28;;;3.35;;
39524;SDS011;25203;50.754;6.978;2024-02-26T11:02:13;4.28;;;3.13;;
39524;SDS011;25203;50.754;6.978;2024-02-26T11:04:15;5.15;;;2.95;;
39524;SDS011;25203;50.754;6.978;2024-02-26T11:06:17;3.83;;;2.80;;
39524;SDS011;25203;50.754;6.978;2024-02-26T11:08:21;5.38;;;2.90;;
39524;SDS011;25203;50.754;6.978;2024-02-26T11:10:23;5.20;;;3.00;;
39524;SDS011;25203;50.754;6.978;2024-02-26T11:12:29;4.28;;;3.25;;
39524;SDS011;25203;50.754;6.978;2024-02-26T11:14:31;4.65;;;2.58;;
39524;SDS011;25203;50.754;6.978;2024-02-26T11:16:32;5.57;;;3.50;;
39524;SDS011;25203;50.754;6.978;2024-02-26T11:18:35;4.93;;;2.67;;
39524;SDS011;25203;50.754;6.978;2024-02-26T11:20:38;3.40;;;2.60;;
39524;SDS011;25203;50.754;6.978;2024-02-26T11:22:40;4.70;;;2.88;;
39524;SDS011;25203;50.754;6.978;2024-02-26T11:24:41;4.18;;;2.80;;
39524;SDS011;25203;50.754;6.978;2024-02-26T11:26:43;3.17;;;2.80;;
39524;SDS011;25203;50.754;6.978;2024-02-26T11:28:48;3.17;;;2.85;;
39524;SDS011;25203;50.754;6.978;2024-02-26T11:30:50;5.78;;;3.00;;
39524;SDS011;25203;50.754;6.978;2024-02-26T11:32:52;5.43;;;3.28;;
39524;SDS011;25203;50.754;6.978;2024-02-26T11:34:53;5.28;;;3.22;;
39524;SDS011;25203;50.754;6.978;2024-02-26T11:36:54;7.35;;;3.20;;
39524;SDS011;25203;50.754;6.978;2024-02-26T11:38:56;4.18;;;2.53;;
39524;SDS011;25203;50.754;6.978;2024-02-26T11:40:57;3.28;;;2.67;;
39524;SDS011;25203;50.754;6.978;2024-02-26T11:42:58;5.63;;;3.13;;
39524;SDS011;25203;50.754;6.978;2024-02-26T11:44:59;3.15;;;2.70;;
39524;SDS011;25203;50.754;6.978;2024-02-26T11:47:09;5.18;;;3.30;;
39524;SDS011;25203;50.754;6.978;2024-02-26T11:51:33;8.30;;;3.88;;
39524;SDS011;25203;50.754;6.978;2024-02-26T11:53:34;6.00;;;3.75;;
39524;SDS011;25203;50.754;6.978;2024-02-26T11:55:45;5.45;;;4.00;;
39524;SDS011;25203;50.754;6.978;2024-02-26T11:57:46;4.03;;;3.22;;
39524;SDS011;25203;50.754;6.978;2024-02-26T11:59:46;3.50;;;2.85;;
39524;SDS011;25203;50.754;6.978;2024-02-26T12:01:48;5.45;;;3.53;;
39524;SDS011;25203;50.754;6.978;2024-02-26T12:03:49;4.70;;;3.40;;
39524;SDS011;25203;50.754;6.978;2024-02-26T12:05:51;6.55;;;3.63;;
39524;SDS011;25203;50.754;6.978;2024-02-26T12:07:55;4.38;;;3.20;;
39524;SDS011;25203;50.754;6.978;2024-02-26T12:10:14;6.10;;;3.72;;
39524;SDS011;25203;50.754;6.978;2024-02-26T12:12:20;6.95;;;3.85;;
39524;SDS011;25203;50.754;6.978;2024-02-26T12:14:26;5.72;;;3.42;;